Messwerte Flippin

Temperatur

Temperatur
°C
1575759600 17.00 17.00 9
1575763200 18.00 18.00 8
1575766800 19.00 19.00 4
1575770400 20.00 20.00 3
1575774000 21.00 21.00 4
1575777600 22.00 22.00 2
1575781200 23.00 23.00 2
1575784800 0.00 0.00 2
1575788400 1.00 1.00 2
1575792000 2.00 2.00 1
1575795600 3.00 3.00 1
1575799200 4.00 4.00
1575802800 5.00 5.00 1
1575806400 6.00 6.00
1575810000 7.00 7.00 2
1575813600 8.00 8.00 2
1575817200 9.00 9.00 3
1575820800 10.00 10.00 9
1575824400 11.00 11.00 10
1575828000 12.00 12.00 10
1575831600 13.00 13.00 9
1575835200 14.00 14.00
1575838800 15.00 15.00
1575842400 16.00 16.00 10

Aktuellste Messwerte

Temperatur
9 °C
Feuchtigkeit
80 %
Wind
10 km/hWindrichtung: Süd
Luftdruck
1011 hPa
Messzeit: 8. Dezember 2019, 17.00Datenquelle: METAR

Weitere Messstationen in der Nähe

Messstation Temperatur Entfernung
Mountain Home 9 °C 14 km
Harrison 8 °C 50 km
West Plains 8 °C 90 km
Batesville 9 °C 105 km
Russellville 9 °C 121 km
Springfield 10 °C 127 km
Rogers 10 °C 136 km

Wind

Windrichtung Böen Mittelwind
° km/h km/h
1575759600 17.00 16.00 - 17.00 100° 5
1575763200 18.00 17.00 - 18.00 0
1575766800 19.00 18.00 - 19.00 0
1575770400 20.00 19.00 - 20.00 0
1575774000 21.00 20.00 - 21.00 0
1575777600 22.00 21.00 - 22.00 0
1575781200 23.00 22.00 - 23.00 110° 5
1575784800 0.00 23.00 - 0.00 120° 5
1575788400 1.00 0.00 - 1.00 120° 5
1575792000 2.00 1.00 - 2.00 0
1575795600 3.00 2.00 - 3.00 110° 5
1575799200 4.00 3.00 - 4.00
1575802800 5.00 4.00 - 5.00 80° 10
1575806400 6.00 5.00 - 6.00
1575810000 7.00 6.00 - 7.00 120° 10
1575813600 8.00 7.00 - 8.00 130° 10
1575817200 9.00 8.00 - 9.00 120° 10
1575820800 10.00 9.00 - 10.00 150° 10
1575824400 11.00 10.00 - 11.00 10
1575828000 12.00 11.00 - 12.00 170° 10
1575831600 13.00 12.00 - 13.00 160° 25 15
1575835200 14.00 13.00 - 14.00
1575838800 15.00 14.00 - 15.00
1575842400 16.00 15.00 - 16.00 170° 15

Ihre Wetterstation

Fehlt Ihre Wetterstation auf unserem Portal?

Schreiben Sie an network@meteonews.ch

Klima

Wann ist es am wärmsten? Wann regnet es am wenigsten? Unsere Klimadaten geben Auskunft.